createdAt,value
2022-08-19T00:02:14.241Z,101146.38
2022-08-19T00:04:41.568Z,101136.97
2022-08-19T00:07:09.148Z,101145.06
2022-08-19T00:09:36.512Z,101146.06
2022-08-19T00:12:04.477Z,101140.03
2022-08-19T00:14:32.873Z,101147.28
2022-08-19T00:17:02.196Z,101142.13
2022-08-19T00:19:29.916Z,101131.63
2022-08-19T00:21:57.290Z,101135.38
2022-08-19T00:24:25.197Z,101147.81
2022-08-19T00:26:53.975Z,101142.91
2022-08-19T00:29:24.205Z,101145.00
2022-08-19T00:31:57.622Z,101141.88
2022-08-19T00:34:28.876Z,101149.13
2022-08-19T00:36:58.228Z,101156.53
2022-08-19T00:39:25.528Z,101151.63
2022-08-19T00:41:53.158Z,101162.50
2022-08-19T00:44:29.392Z,101154.91
2022-08-19T00:47:00.029Z,101159.75
2022-08-19T00:49:52.995Z,101162.19
2022-08-19T00:52:30.291Z,101151.25
2022-08-19T00:55:00.110Z,101148.97
2022-08-19T00:57:43.037Z,101146.59
2022-08-19T01:00:17.387Z,101152.16
2022-08-19T01:02:45.622Z,101153.34
2022-08-19T01:05:22.960Z,101143.13
2022-08-19T01:07:52.306Z,101140.03
2022-08-19T01:10:27.787Z,101148.94
2022-08-19T01:13:00.313Z,101143.19
2022-08-19T01:15:45.683Z,101138.00
2022-08-19T01:18:18.040Z,101143.31
2022-08-19T01:20:46.405Z,101152.22
2022-08-19T01:23:15.739Z,101144.25
2022-08-19T01:25:53.083Z,101154.03
2022-08-19T01:28:39.898Z,101151.41
2022-08-19T01:31:27.200Z,101149.00
2022-08-19T01:33:58.517Z,101154.56
2022-08-19T01:36:37.185Z,101148.06
2022-08-19T01:39:12.049Z,101154.72
2022-08-19T01:41:39.972Z,101149.53
2022-08-19T01:44:18.473Z,101157.00
2022-08-19T01:46:49.355Z,101157.88
2022-08-19T01:49:21.927Z,101150.16
2022-08-19T01:51:51.337Z,101153.06
2022-08-19T01:54:26.977Z,101150.53
2022-08-19T01:57:09.299Z,101158.63
2022-08-19T01:59:37.467Z,101162.22
2022-08-19T02:02:09.687Z,101158.84
2022-08-19T02:04:39.095Z,101156.34
2022-08-19T02:07:09.022Z,101165.25
2022-08-19T02:09:36.908Z,101170.66
2022-08-19T02:12:08.547Z,101162.97
2022-08-19T02:14:37.978Z,101171.03
2022-08-19T02:17:05.531Z,101179.22
2022-08-19T02:19:33.626Z,101173.94
2022-08-19T02:22:01.704Z,101177.53
2022-08-19T02:24:29.378Z,101172.34
2022-08-19T02:26:56.844Z,101162.63
2022-08-19T02:29:24.170Z,101162.63
2022-08-19T02:31:51.518Z,101160.69
2022-08-19T02:34:21.875Z,101165.97
2022-08-19T02:36:51.699Z,101177.41
2022-08-19T02:39:20.294Z,101168.88
2022-08-19T02:41:47.633Z,101177.66
2022-08-19T02:44:29.303Z,101179.34
2022-08-19T02:46:58.855Z,101181.28
2022-08-19T02:49:26.193Z,101181.28
2022-08-19T02:51:53.496Z,101184.78
2022-08-19T02:54:20.830Z,101188.47
2022-08-19T02:56:48.122Z,101179.81
2022-08-19T02:59:15.432Z,101182.59
2022-08-19T03:01:43.657Z,101181.63
2022-08-19T03:04:16.494Z,101179.09
2022-08-19T03:06:47.978Z,101179.34
2022-08-19T03:09:16.917Z,101179.59
2022-08-19T03:11:44.474Z,101182.59
2022-08-19T03:14:12.684Z,101177.66
2022-08-19T03:16:49.941Z,101175.38
2022-08-19T03:19:22.332Z,101188.00
2022-08-19T03:21:51.776Z,101185.47
2022-08-19T03:24:21.111Z,101188.00
2022-08-19T03:26:59.584Z,101192.47
2022-08-19T03:29:31.757Z,101186.22
2022-08-19T03:32:07.276Z,101180.03
2022-08-19T03:34:38.539Z,101187.03
2022-08-19T03:37:13.363Z,101184.50
2022-08-19T03:39:43.105Z,101185.47
2022-08-19T03:42:32.824Z,101182.09
2022-08-19T03:45:00.634Z,101180.41
2022-08-19T03:47:27.978Z,101184.16
2022-08-19T03:49:55.586Z,101178.13
2022-08-19T03:52:22.889Z,101173.91
2022-08-19T03:54:50.125Z,101171.28
2022-08-19T03:57:17.390Z,101166.09
2022-08-19T03:59:45.099Z,101157.16
2022-08-19T04:02:14.323Z,101167.75
2022-08-19T04:04:45.051Z,101177.41
2022-08-19T04:07:22.389Z,101179.34
2022-08-19T04:09:51.490Z,101185.81
2022-08-19T04:12:20.201Z,101187.63
2022-08-19T04:14:48.372Z,101186.78
2022-08-19T04:17:15.705Z,101180.75
2022-08-19T04:19:43.939Z,101185.34
2022-08-19T04:22:12.529Z,101171.59
2022-08-19T04:24:40.065Z,101181.81
2022-08-19T04:27:07.724Z,101177.00
2022-08-19T04:29:35.597Z,101173.16
2022-08-19T04:32:08.422Z,101169.16
2022-08-19T04:34:37.584Z,101159.63
2022-08-19T04:37:25.679Z,101165.03
2022-08-19T04:40:11.806Z,101163.38
2022-08-19T04:42:42.141Z,101160.84
2022-08-19T04:45:15.589Z,101167.91
2022-08-19T04:47:48.060Z,101163.63
2022-08-19T04:50:27.684Z,101170.91
2022-08-19T04:52:57.020Z,101171.03
2022-08-19T04:55:26.702Z,101172.84
2022-08-19T04:57:57.318Z,101178.38
2022-08-19T05:00:25.011Z,101181.97
2022-08-19T05:02:52.344Z,101183.91
2022-08-19T05:05:20.683Z,101185.78
2022-08-19T05:07:48.249Z,101176.03
2022-08-19T05:10:15.571Z,101186.63
2022-08-19T05:12:42.891Z,101185.78
2022-08-19T05:15:10.744Z,101195.50
2022-08-19T05:17:39.197Z,101199.13
2022-08-19T05:20:28.944Z,101206.22
2022-08-19T05:22:56.719Z,101194.78
2022-08-19T05:25:25.590Z,101202.84
2022-08-19T05:27:52.998Z,101200.09
2022-08-19T05:30:33.551Z,101207.19
2022-08-19T05:33:10.677Z,101204.66
2022-08-19T05:35:40.519Z,101214.28
2022-08-19T05:38:09.362Z,101213.53
2022-08-19T05:40:38.789Z,101225.84
2022-08-19T05:43:08.768Z,101219.56
2022-08-19T05:45:42.985Z,101222.22
2022-08-19T05:48:12.858Z,101225.59
2022-08-19T05:50:42.637Z,101221.97
2022-08-19T05:53:10.335Z,101220.94
2022-08-19T05:55:39.502Z,101217.44
2022-08-19T05:58:08.570Z,101228.03
2022-08-19T06:00:38.282Z,101219.13
2022-08-19T06:03:09.626Z,101215.44
2022-08-19T06:05:46.234Z,101217.00
2022-08-19T06:08:20.601Z,101215.91
2022-08-19T06:11:44.586Z,101211.16
2022-08-19T06:14:21.922Z,101209.94
2022-08-19T06:16:55.388Z,101207.91
2022-08-19T06:19:25.258Z,101205.16
2022-08-19T06:21:53.679Z,101208.28
2022-08-19T06:24:26.309Z,101215.88
2022-08-19T06:27:00.760Z,101219.13
2022-08-19T06:29:30.856Z,101213.25
2022-08-19T06:32:03.378Z,101216.16
2022-08-19T06:34:35.835Z,101210.50
2022-08-19T06:37:06.806Z,101208.25
2022-08-19T06:39:40.028Z,101200.66
2022-08-19T06:42:12.476Z,101197.53
2022-08-19T06:44:48.016Z,101204.03
2022-08-19T06:47:23.698Z,101198.13
2022-08-19T06:50:03.178Z,101205.09
2022-08-19T06:52:36.726Z,101217.03
2022-08-19T06:55:07.127Z,101216.72
2022-08-19T06:57:35.542Z,101214.28
2022-08-19T07:00:13.059Z,101216.34
2022-08-19T07:02:49.697Z,101219.94
2022-08-19T07:05:23.562Z,101213.91
2022-08-19T07:07:51.209Z,101216.53
2022-08-19T07:10:20.062Z,101210.59
2022-08-19T07:12:47.534Z,101214.44
2022-08-19T07:15:16.520Z,101213.94
2022-08-19T07:17:44.421Z,101215.22
2022-08-19T07:20:12.813Z,101219.91
2022-08-19T07:22:41.386Z,101222.19
2022-08-19T07:25:10.847Z,101223.75
2022-08-19T07:27:39.519Z,101228.94
2022-08-19T07:30:11.681Z,101229.38
2022-08-19T07:32:41.212Z,101235.78
2022-08-19T07:35:10.427Z,101233.34
2022-08-19T07:37:39.256Z,101243.78
2022-08-19T07:40:09.230Z,101238.41
2022-08-19T07:42:36.797Z,101232.06
2022-08-19T07:45:07.867Z,101242.88
2022-08-19T07:47:49.585Z,101234.75
2022-08-19T07:50:21.249Z,101242.03
2022-08-19T07:52:51.024Z,101245.41
2022-08-19T07:55:41.264Z,101245.66
2022-08-19T07:58:15.074Z,101255.59
2022-08-19T08:00:44.955Z,101254.38
2022-08-19T08:03:14.553Z,101256.63
2022-08-19T08:06:01.083Z,101252.84
2022-08-19T08:08:48.353Z,101244.47
2022-08-19T08:11:20.688Z,101250.13
2022-08-19T08:14:01.186Z,101254.91
2022-08-19T08:16:47.288Z,101254.13
2022-08-19T08:19:20.584Z,101260.47
2022-08-19T08:21:57.158Z,101255.31
2022-08-19T08:24:29.157Z,101260.44
2022-08-19T08:27:01.813Z,101261.88
2022-08-19T08:29:35.053Z,101277.47
2022-08-19T08:32:04.470Z,101279.59
2022-08-19T08:34:44.516Z,101282.75
2022-08-19T08:37:16.117Z,101287.94
2022-08-19T08:39:43.711Z,101277.81
2022-08-19T08:42:36.123Z,101284.84
2022-08-19T08:45:17.775Z,101281.50
2022-08-19T08:47:53.630Z,101293.56
2022-08-19T08:50:44.483Z,101303.63
2022-08-19T08:53:17.335Z,101303.88
2022-08-19T08:55:57.255Z,101301.13
2022-08-19T09:01:13.086Z,101306.44
2022-08-19T09:03:44.050Z,101302.38
2022-08-19T09:07:18.585Z,101301.13
2022-08-19T09:10:44.245Z,101298.16
2022-08-19T09:13:55.673Z,101300.00
2022-08-19T09:16:30.090Z,101304.59
2022-08-19T09:19:06.542Z,101295.09
2022-08-19T09:21:35.642Z,101298.19
2022-08-19T09:24:05.510Z,101298.72
2022-08-19T09:26:47.451Z,101305.75
2022-08-19T09:29:22.450Z,101303.22
2022-08-19T09:31:50.992Z,101300.28
2022-08-19T09:34:22.204Z,101307.25
2022-08-19T09:36:54.731Z,101303.72
2022-08-19T09:39:23.301Z,101310.06
2022-08-19T09:41:51.291Z,101311.75
2022-08-19T09:44:21.261Z,101318.63
2022-08-19T09:46:49.967Z,101317.69
2022-08-19T09:49:22.721Z,101310.38
2022-08-19T09:51:55.387Z,101311.47
2022-08-19T09:54:24.844Z,101307.13
2022-08-19T09:56:59.535Z,101315.84
2022-08-19T09:59:28.359Z,101314.84
2022-08-19T10:02:03.663Z,101322.56
2022-08-19T10:04:56.501Z,101312.84
2022-08-19T10:07:28.998Z,101313.44
2022-08-19T10:10:10.270Z,101312.91
2022-08-19T10:12:38.316Z,101310.53
2022-08-19T10:15:07.349Z,101324.31
2022-08-19T10:17:36.132Z,101315.31
2022-08-19T10:20:05.417Z,101318.66
2022-08-19T10:22:32.798Z,101311.44
2022-08-19T10:25:00.099Z,101308.66
2022-08-19T10:27:27.979Z,101314.47
2022-08-19T10:29:59.597Z,101311.94
2022-08-19T10:32:33.946Z,101312.44
2022-08-19T10:35:06.145Z,101311.22
2022-08-19T10:37:33.930Z,101309.34
2022-08-19T10:40:08.647Z,101307.84
2022-08-19T10:42:37.158Z,101318.47
2022-08-19T10:45:07.024Z,101309.56
2022-08-19T10:47:35.239Z,101309.59
2022-08-19T10:50:22.633Z,101314.53
2022-08-19T10:52:58.684Z,101304.91
2022-08-19T10:55:44.833Z,101307.34
2022-08-19T10:58:23.491Z,101302.38
2022-08-19T11:00:59.694Z,101297.94
2022-08-19T11:03:31.623Z,101296.25
2022-08-19T11:06:07.490Z,101287.63
2022-08-19T11:08:38.623Z,101292.78
2022-08-19T11:11:08.877Z,101290.69
2022-08-19T11:13:41.430Z,101300.16
2022-08-19T11:16:19.060Z,101291.31
2022-08-19T11:18:54.695Z,101284.63
2022-08-19T11:21:28.465Z,101289.28
2022-08-19T11:24:00.294Z,101295.19
2022-08-19T11:26:31.734Z,101297.19
2022-08-19T11:29:01.455Z,101296.53
2022-08-19T11:31:36.408Z,101300.91
2022-08-19T11:34:09.049Z,101290.84
2022-08-19T11:36:42.163Z,101291.84
2022-08-19T11:39:12.372Z,101274.75
2022-08-19T11:41:40.519Z,101277.44
2022-08-19T11:44:08.743Z,101281.56
2022-08-19T11:46:38.723Z,101281.69
2022-08-19T11:49:13.764Z,101280.03
2022-08-19T11:51:45.665Z,101278.34
2022-08-19T11:54:17.294Z,101279.03
2022-08-19T11:56:47.077Z,101274.66
2022-08-19T11:59:15.031Z,101282.91
2022-08-19T12:01:43.675Z,101281.09
2022-08-19T12:04:11.964Z,101289.06
2022-08-19T12:06:42.105Z,101283.34
2022-08-19T12:09:11.623Z,101290.34
2022-08-19T12:11:40.398Z,101280.19
2022-08-19T12:14:14.670Z,101283.22
2022-08-19T12:16:49.101Z,101286.47
2022-08-19T12:19:25.624Z,101281.47
2022-08-19T12:21:56.373Z,101291.53
2022-08-19T12:24:25.176Z,101287.81
2022-08-19T12:26:54.064Z,101287.47
2022-08-19T12:29:24.295Z,101282.13
2022-08-19T12:31:52.502Z,101276.94
2022-08-19T12:34:21.110Z,101281.78
2022-08-19T12:36:50.328Z,101282.13
2022-08-19T12:39:18.077Z,101269.72
2022-08-19T12:41:54.123Z,101273.06
2022-08-19T12:44:28.744Z,101262.22
2022-08-19T12:47:00.878Z,101263.03
2022-08-19T12:49:53.434Z,101264.38
2022-08-19T12:52:28.060Z,101268.06
2022-08-19T12:54:59.869Z,101253.63
2022-08-19T12:57:33.456Z,101256.66
2022-08-19T13:00:29.056Z,101257.50
2022-08-19T13:02:56.541Z,101250.44
2022-08-19T13:05:37.145Z,101257.00
2022-08-19T13:08:04.606Z,101251.31
2022-08-19T13:10:36.612Z,101247.25
2022-08-19T13:13:09.575Z,101250.75
2022-08-19T13:15:41.171Z,101249.72
2022-08-19T13:18:11.309Z,101245.88
2022-08-19T13:20:41.671Z,101245.41
2022-08-19T13:23:10.725Z,101242.06
2022-08-19T13:25:38.116Z,101233.69
2022-08-19T13:28:07.497Z,101241.25
2022-08-19T13:30:53.396Z,101239.41
2022-08-19T13:33:21.198Z,101237.72
2022-08-19T13:35:58.778Z,101237.38
2022-08-19T13:38:26.227Z,101243.91
2022-08-19T13:40:56.719Z,101234.19
2022-08-19T13:43:28.764Z,101238.72
2022-08-19T13:45:57.544Z,101237.22
2022-08-19T13:48:27.939Z,101242.06
2022-08-19T13:50:56.175Z,101237.53
2022-08-19T13:53:24.454Z,101240.75
2022-08-19T13:55:52.093Z,101233.06
2022-08-19T13:58:19.765Z,101237.41
2022-08-19T14:00:48.488Z,101237.91
2022-08-19T14:03:16.492Z,101225.50
2022-08-19T14:05:43.801Z,101240.22
2022-08-19T14:08:11.100Z,101229.47
2022-08-19T14:10:38.570Z,101229.63
2022-08-19T14:13:05.896Z,101229.94
2022-08-19T14:15:33.280Z,101227.09
2022-08-19T14:18:00.842Z,101229.25
2022-08-19T14:20:28.976Z,101225.25
2022-08-19T14:22:56.761Z,101219.53
2022-08-19T14:25:29.392Z,101229.25
2022-08-19T14:27:58.395Z,101219.34
2022-08-19T14:30:35.002Z,101225.72
2022-08-19T14:33:03.711Z,101215.03
2022-08-19T14:35:35.973Z,101210.16
2022-08-19T14:38:17.581Z,101212.34
2022-08-19T14:40:46.753Z,101214.00
2022-08-19T14:43:14.141Z,101210.50
2022-08-19T14:45:45.618Z,101221.22
2022-08-19T14:48:19.473Z,101215.53
2022-08-19T14:50:48.008Z,101223.56
2022-08-19T14:53:17.985Z,101213.84
2022-08-19T14:55:47.677Z,101212.34
2022-08-19T14:58:29.486Z,101213.50
2022-08-19T15:01:00.607Z,101213.81
2022-08-19T15:03:30.019Z,101219.19
2022-08-19T15:05:58.609Z,101209.69
2022-08-19T15:08:27.036Z,101207.75
2022-08-19T15:10:55.138Z,101211.94
2022-08-19T15:13:22.870Z,101213.44
2022-08-19T15:15:50.244Z,101219.81
2022-08-19T15:18:17.586Z,101221.09
2022-08-19T15:20:46.773Z,101221.91
2022-08-19T15:23:20.700Z,101232.91
2022-08-19T15:25:49.335Z,101246.09
2022-08-19T15:28:17.323Z,101239.53
2022-08-19T15:30:44.751Z,101239.00
2022-08-19T15:33:15.435Z,101234.66
2022-08-19T15:35:44.765Z,101227.63
2022-08-19T15:38:13.864Z,101228.97
2022-08-19T15:40:42.881Z,101236.09
2022-08-19T15:43:10.782Z,101232.22
2022-08-19T15:45:38.138Z,101230.34
2022-08-19T15:48:06.077Z,101229.44
2022-08-19T15:50:34.172Z,101229.63
2022-08-19T15:53:10.246Z,101239.50
2022-08-19T15:55:48.185Z,101236.97
2022-08-19T15:58:34.606Z,101233.88
2022-08-19T16:01:27.191Z,101231.31
2022-08-19T16:04:17.719Z,101245.19
2022-08-19T16:06:57.261Z,101249.53
2022-08-19T16:09:32.601Z,101250.81
2022-08-19T16:12:04.888Z,101263.66
2022-08-19T16:14:38.286Z,101260.69
2022-08-19T16:17:05.913Z,101262.22
2022-08-19T16:19:33.324Z,101261.16
2022-08-19T16:22:00.733Z,101260.16
2022-08-19T16:24:30.752Z,101262.84
2022-08-19T16:26:58.075Z,101259.34
2022-08-19T16:29:34.526Z,101261.03
2022-08-19T16:32:11.484Z,101256.84
2022-08-19T16:34:41.937Z,101256.66
2022-08-19T16:37:10.595Z,101255.28
2022-08-19T16:39:39.240Z,101251.63
2022-08-19T16:42:10.486Z,101255.56
2022-08-19T16:44:45.738Z,101261.72
2022-08-19T16:47:17.963Z,101265.25
2022-08-19T16:49:53.976Z,101267.75
2022-08-19T16:52:26.246Z,101268.59
2022-08-19T16:54:54.538Z,101268.44
2022-08-19T16:57:23.825Z,101265.09
2022-08-19T16:59:52.368Z,101262.44
2022-08-19T17:02:23.494Z,101266.91
2022-08-19T17:04:58.066Z,101260.88
2022-08-19T17:07:29.397Z,101261.84
2022-08-19T17:10:03.572Z,101264.50
2022-08-19T17:12:32.440Z,101264.22
2022-08-19T17:15:07.118Z,101264.81
2022-08-19T17:17:37.312Z,101265.38
2022-08-19T17:20:07.145Z,101260.59
2022-08-19T17:22:36.879Z,101260.31
2022-08-19T17:25:05.376Z,101254.03
2022-08-19T17:27:32.805Z,101259.91
2022-08-19T17:30:04.616Z,101255.16
2022-08-19T17:32:34.809Z,101264.53
2022-08-19T17:35:04.092Z,101261.72
2022-08-19T17:37:32.206Z,101262.59
2022-08-19T17:39:59.650Z,101267.91
2022-08-19T17:42:27.072Z,101262.00
2022-08-19T17:44:54.758Z,101257.97
2022-08-19T17:47:22.041Z,101262.16
2022-08-19T17:49:49.299Z,101258.34
2022-08-19T17:52:16.699Z,101270.56
2022-08-19T17:54:44.998Z,101264.94
2022-08-19T17:57:14.058Z,101268.00
2022-08-19T17:59:43.923Z,101264.63
2022-08-19T18:02:12.362Z,101258.47
2022-08-19T18:04:39.866Z,101254.25
2022-08-19T18:07:07.253Z,101252.00
2022-08-19T18:09:42.233Z,101259.44
2022-08-19T18:12:13.910Z,101257.72
2022-08-19T18:14:42.364Z,101255.22
2022-08-19T18:17:17.316Z,101255.91
2022-08-19T18:19:47.350Z,101258.56
2022-08-19T18:22:35.492Z,101263.88
2022-08-19T18:25:19.142Z,101259.84
2022-08-19T18:27:47.717Z,101261.22
2022-08-19T18:30:15.881Z,101268.63
2022-08-19T18:32:45.173Z,101269.75
2022-08-19T18:35:17.653Z,101276.75
2022-08-19T18:37:46.807Z,101283.06
2022-08-19T18:40:41.292Z,101283.19
2022-08-19T18:43:19.557Z,101286.94
2022-08-19T18:46:07.114Z,101293.28
2022-08-19T18:48:55.104Z,101291.72
2022-08-19T18:51:29.931Z,101293.53
2022-08-19T18:53:59.053Z,101299.69
2022-08-19T18:56:32.151Z,101300.66
2022-08-19T18:59:02.161Z,101297.16
2022-08-19T19:01:39.431Z,101292.69
2022-08-19T19:04:13.257Z,101298.00
2022-08-19T19:06:43.101Z,101301.53
2022-08-19T19:09:19.614Z,101298.13
2022-08-19T19:12:01.032Z,101297.31
2022-08-19T19:14:50.639Z,101304.59
2022-08-19T19:17:18.606Z,101309.19
2022-08-19T19:19:45.977Z,101316.47
2022-08-19T19:22:21.036Z,101301.59
2022-08-19T19:24:48.871Z,101315.91
2022-08-19T19:27:20.525Z,101319.38
2022-08-19T19:29:52.260Z,101326.81
2022-08-19T19:32:38.671Z,101333.09
2022-08-19T19:35:10.669Z,101332.53
2022-08-19T19:37:38.066Z,101334.59
2022-08-19T19:40:06.056Z,101333.06
2022-08-19T19:42:33.394Z,101337.78
2022-08-19T19:45:02.045Z,101335.25
2022-08-19T19:47:30.346Z,101331.88
2022-08-19T19:50:15.182Z,101334.81
2022-08-19T19:52:45.800Z,101334.09
2022-08-19T19:55:18.436Z,101336.16
2022-08-19T19:57:48.711Z,101335.34
2022-08-19T20:00:19.047Z,101340.78
2022-08-19T20:02:50.420Z,101340.91
2022-08-19T20:05:23.041Z,101348.06
2022-08-19T20:08:12.976Z,101344.66
2022-08-19T20:10:43.349Z,101345.53
2022-08-19T20:13:13.624Z,101354.47
2022-08-19T20:15:43.563Z,101351.81
2022-08-19T20:18:14.324Z,101350.97
2022-08-19T20:20:42.891Z,101353.50
2022-08-19T20:23:10.265Z,101348.31
2022-08-19T20:25:39.670Z,101353.63
2022-08-19T20:28:06.947Z,101339.47
2022-08-19T20:30:34.285Z,101350.25
2022-08-19T20:33:06.781Z,101351.22
2022-08-19T20:35:36.689Z,101351.22
2022-08-19T20:38:08.524Z,101353.03
2022-08-19T20:40:37.833Z,101357.47
2022-08-19T20:43:13.488Z,101357.47
2022-08-19T20:45:41.335Z,101354.97
2022-08-19T20:48:10.527Z,101358.59
2022-08-19T20:50:38.351Z,101364.06
2022-08-19T20:53:17.135Z,101365.03
2022-08-19T20:55:49.290Z,101362.63
2022-08-19T20:58:21.278Z,101361.03
2022-08-19T21:00:51.038Z,101354.78
2022-08-19T21:03:27.358Z,101360.91
2022-08-19T21:05:56.232Z,101362.88
2022-08-19T21:08:25.539Z,101355.16
2022-08-19T21:10:55.966Z,101360.59
2022-08-19T21:13:25.002Z,101349.28
2022-08-19T21:15:52.896Z,101344.78
2022-08-19T21:18:25.148Z,101341.28
2022-08-19T21:20:54.694Z,101342.13
2022-08-19T21:23:27.449Z,101331.50
2022-08-19T21:25:58.807Z,101347.44
2022-08-19T21:28:34.338Z,101344.91
2022-08-19T21:31:06.977Z,101341.28
2022-08-19T21:33:34.418Z,101342.25
2022-08-19T21:36:02.577Z,101344.78
2022-08-19T21:38:30.143Z,101348.28
2022-08-19T21:40:57.793Z,101343.69
2022-08-19T21:43:25.229Z,101348.88
2022-08-19T21:45:52.510Z,101352.38
2022-08-19T21:48:19.916Z,101353.47
2022-08-19T21:50:48.351Z,101350.94
2022-08-19T21:53:23.009Z,101349.28
2022-08-19T21:55:53.653Z,101354.59
2022-08-19T21:58:28.805Z,101352.06
2022-08-19T22:01:01.620Z,101348.41
2022-08-19T22:03:29.593Z,101359.03
2022-08-19T22:05:58.591Z,101366.19
2022-08-19T22:08:27.244Z,101360.03
2022-08-19T22:10:55.118Z,101360.16
2022-08-19T22:13:22.409Z,101365.59
2022-08-19T22:15:51.962Z,101359.53
2022-08-19T22:18:19.278Z,101368.50
2022-08-19T22:20:47.906Z,101366.94
2022-08-19T22:23:15.500Z,101371.44
2022-08-19T22:25:47.178Z,101364.41
2022-08-19T22:28:18.824Z,101374.34
2022-08-19T22:30:51.218Z,101366.50
2022-08-19T22:33:21.699Z,101371.94
2022-08-19T22:35:51.793Z,101360.69
2022-08-19T22:38:19.429Z,101368.91
2022-08-19T22:40:49.849Z,101364.84
2022-08-19T22:43:24.732Z,101359.91
2022-08-19T22:45:55.128Z,101366.06
2022-08-19T22:48:27.967Z,101367.16
2022-08-19T22:51:15.781Z,101357.75
2022-08-19T22:53:47.050Z,101356.19
2022-08-19T22:56:18.620Z,101354.25
2022-08-19T22:58:50.284Z,101360.41
2022-08-19T23:01:27.150Z,101358.47
2022-08-19T23:03:58.443Z,101360.75
2022-08-19T23:06:33.758Z,101365.94
2022-08-19T23:09:06.675Z,101373.91
2022-08-19T23:11:41.992Z,101369.44
2022-08-19T23:14:12.519Z,101368.47
2022-08-19T23:16:41.341Z,101363.72
2022-08-19T23:19:10.338Z,101365.31
2022-08-19T23:21:40.885Z,101372.19
2022-08-19T23:24:10.052Z,101373.84
2022-08-19T23:26:37.813Z,101369.41
2022-08-19T23:29:24.987Z,101365.06
2022-08-19T23:31:52.322Z,101370.38
2022-08-19T23:34:20.536Z,101369.66
2022-08-19T23:36:50.817Z,101363.34
2022-08-19T23:39:19.185Z,101364.22
2022-08-19T23:41:46.947Z,101361.81
2022-08-19T23:44:14.519Z,101362.91
2022-08-19T23:46:54.328Z,101367.13
2022-08-19T23:49:25.307Z,101360.25
2022-08-19T23:51:55.625Z,101367.00
2022-08-19T23:54:34.234Z,101360.81
2022-08-19T23:57:13.231Z,101363.84
2022-08-19T23:59:45.336Z,101367.50
